Time;durP1;ratioP1;P1;durP2;ratioP2;P2;SDS_P1;SDS_P2;PMS_P1;PMS_P2;Temp;Humidity;BMP_temperature;BMP_pressure;BME280_temperature;BME280_humidity;BME280_pressure;Samples;Min_cycle;Max_cycle;Signal;HPM_P1;HPM_P2
2021/04/18 00:00:18;;;;;;;11.13;8.38;;;4.40;99.90;;;;;;4766611;30;20063;-78
2021/04/18 00:02:48;;;;;;;10.52;8.07;;;4.30;99.90;;;;;;4751446;30;20521;-79
2021/04/18 00:05:25;;;;;;;9.07;7.43;;;4.30;99.90;;;;;;4739938;29;20700;-80
2021/04/18 00:08:02;;;;;;;11.15;8.40;;;4.30;99.90;;;;;;4767802;30;20523;-79
2021/04/18 00:10:36;;;;;;;9.90;7.55;;;4.30;99.90;;;;;;4754182;30;20130;-78
2021/04/18 00:13:11;;;;;;;10.00;8.00;;;4.20;99.90;;;;;;4768134;30;20140;-79
2021/04/18 00:15:39;;;;;;;10.05;8.23;;;4.20;99.90;;;;;;4768452;30;20055;-79
2021/04/18 00:18:06;;;;;;;10.23;7.45;;;4.20;99.90;;;;;;4767898;30;20497;-79
2021/04/18 00:20:41;;;;;;;11.23;8.52;;;4.20;99.90;;;;;;4765695;30;20055;-79
2021/04/18 00:23:13;;;;;;;9.05;7.75;;;4.20;99.90;;;;;;4767200;30;20061;-79
2021/04/18 00:25:44;;;;;;;10.60;8.68;;;4.20;99.90;;;;;;4768413;30;20047;-79
2021/04/18 00:28:11;;;;;;;11.30;8.63;;;4.20;99.90;;;;;;4768227;30;20496;-79
2021/04/18 00:30:42;;;;;;;11.70;8.82;;;4.30;99.90;;;;;;4768494;30;20067;-79
2021/04/18 00:33:13;;;;;;;11.57;8.50;;;4.30;99.90;;;;;;4768656;30;20058;-79
2021/04/18 00:35:39;;;;;;;12.80;8.88;;;4.30;99.90;;;;;;4768729;30;20051;-79
2021/04/18 00:38:11;;;;;;;12.02;8.73;;;4.30;99.90;;;;;;4768383;30;20058;-79
2021/04/18 00:40:42;;;;;;;10.55;9.25;;;4.30;99.90;;;;;;4769301;30;20217;-79
2021/04/18 00:43:09;;;;;;;11.68;8.90;;;4.40;99.90;;;;;;4768670;30;20431;-78
2021/04/18 00:45:41;;;;;;;12.50;9.18;;;4.40;99.90;;;;;;4768339;30;20058;-79
2021/04/18 00:48:12;;;;;;;9.93;8.10;;;4.40;99.90;;;;;;4769048;30;20156;-79
2021/04/18 00:50:43;;;;;;;12.95;9.48;;;4.30;99.90;;;;;;4768876;30;20067;-79
2021/04/18 00:53:14;;;;;;;10.75;8.55;;;4.30;99.90;;;;;;4769093;29;20051;-79
2021/04/18 00:55:43;;;;;;;12.30;9.40;;;4.30;99.90;;;;;;4768500;30;20138;-79
2021/04/18 00:58:14;;;;;;;11.98;10.02;;;4.30;99.90;;;;;;4768315;30;20389;-78
2021/04/18 01:00:46;;;;;;;13.07;9.13;;;4.30;99.90;;;;;;4769004;30;20095;-79
2021/04/18 01:03:12;;;;;;;12.15;9.20;;;4.30;99.90;;;;;;4768412;30;20120;-79
2021/04/18 01:05:44;;;;;;;12.05;9.38;;;4.20;99.90;;;;;;4768483;30;20112;-78
2021/04/18 01:08:16;;;;;;;12.18;8.93;;;4.20;99.90;;;;;;4768001;30;20138;-79
2021/04/18 01:10:47;;;;;;;11.18;8.90;;;4.20;99.90;;;;;;4768239;30;20089;-79
2021/04/18 01:13:18;;;;;;;10.82;8.75;;;4.20;99.90;;;;;;4768177;30;20043;-79
2021/04/18 01:15:51;;;;;;;10.40;8.88;;;4.20;99.90;;;;;;4757588;30;20051;-79
2021/04/18 01:18:22;;;;;;;12.40;10.23;;;4.20;99.90;;;;;;4771007;30;20401;-78
2021/04/18 01:21:05;;;;;;;12.13;8.80;;;4.20;99.90;;;;;;4756792;30;20469;-78
2021/04/18 01:24:04;;;;;;;12.85;9.40;;;4.20;99.90;;;;;;4765077;30;20189;-79
2021/04/18 01:26:49;;;;;;;13.38;11.70;;;4.20;99.90;;;;;;4771648;30;20185;-78
2021/04/18 01:29:21;;;;;;;14.63;12.07;;;4.10;99.90;;;;;;4757086;30;20068;-79
2021/04/18 01:31:47;;;;;;;12.10;10.43;;;4.10;99.90;;;;;;4756715;29;20087;-78
2021/04/18 01:34:14;;;;;;;12.38;9.55;;;4.10;99.90;;;;;;4756785;30;20062;-78
2021/04/18 01:36:45;;;;;;;12.32;9.30;;;4.00;99.90;;;;;;4771534;29;20539;-78
2021/04/18 01:39:17;;;;;;;12.43;9.57;;;4.00;99.90;;;;;;4770947;30;20047;-79
2021/04/18 01:41:49;;;;;;;18.38;9.82;;;4.00;99.90;;;;;;4771375;29;20393;-78
2021/04/18 01:44:15;;;;;;;13.05;9.18;;;3.90;99.90;;;;;;4769698;30;20101;-79
2021/04/18 01:46:45;;;;;;;10.55;8.75;;;3.90;99.90;;;;;;4769732;30;20135;-78
2021/04/18 01:49:13;;;;;;;12.77;9.32;;;4.00;99.90;;;;;;4770767;30;20047;-79
2021/04/18 01:51:45;;;;;;;13.50;9.23;;;3.90;99.90;;;;;;4757058;29;20047;-79
2021/04/18 01:54:11;;;;;;;11.80;8.82;;;3.90;99.90;;;;;;4756089;30;20052;-79
2021/04/18 01:56:39;;;;;;;15.38;10.05;;;4.00;99.90;;;;;;4771210;30;20113;-78
2021/04/18 01:59:12;;;;;;;16.63;10.32;;;3.90;99.90;;;;;;4770776;30;20108;-78
2021/04/18 02:01:52;;;;;;;12.38;10.20;;;3.90;99.90;;;;;;4757777;30;20047;-79
2021/04/18 02:04:22;;;;;;;12.98;9.13;;;4.00;99.90;;;;;;4770919;30;20078;-78
2021/04/18 02:06:53;;;;;;;14.57;10.23;;;4.00;99.90;;;;;;4756610;30;20083;-78
2021/04/18 02:09:25;;;;;;;14.13;10.27;;;4.00;99.90;;;;;;4756394;30;20116;-78
2021/04/18 02:11:52;;;;;;;12.85;10.25;;;4.10;99.90;;;;;;4756253;30;20051;-78
2021/04/18 02:14:18;;;;;;;14.20;11.43;;;4.10;99.90;;;;;;4756101;30;20142;-78
2021/04/18 02:16:55;;;;;;;12.88;10.00;;;4.00;99.90;;;;;;4757343;30;20428;-78
2021/04/18 02:19:26;;;;;;;14.73;10.70;;;4.00;99.90;;;;;;4786562;30;20527;-79
2021/04/18 02:21:52;;;;;;;12.15;9.60;;;4.00;99.90;;;;;;4770825;30;20063;-79
2021/04/18 02:24:24;;;;;;;14.15;10.93;;;4.00;99.90;;;;;;4770510;30;20480;-78
2021/04/18 02:26:56;;;;;;;15.10;10.45;;;4.00;99.90;;;;;;4770773;29;20043;-78
2021/04/18 02:29:33;;;;;;;14.15;10.57;;;4.00;99.90;;;;;;4769973;30;20054;-79
2021/04/18 02:32:07;;;;;;;14.55;11.07;;;4.00;99.90;;;;;;4756595;30;20312;-78
2021/04/18 02:34:47;;;;;;;14.15;10.13;;;4.00;99.90;;;;;;4757352;30;20047;-79
2021/04/18 02:37:14;;;;;;;15.45;11.00;;;4.00;99.90;;;;;;4770107;29;20055;-79
2021/04/18 02:39:40;;;;;;;13.02;10.55;;;4.00;99.90;;;;;;4755124;30;20108;-79
2021/04/18 02:42:12;;;;;;;13.27;10.52;;;4.00;99.90;;;;;;4756030;30;20043;-78
2021/04/18 02:44:43;;;;;;;15.20;11.32;;;4.10;99.90;;;;;;4756215;30;20051;-79
2021/04/18 02:47:16;;;;;;;17.40;11.27;;;4.00;99.90;;;;;;4770311;30;20481;-78
2021/04/18 02:49:49;;;;;;;15.43;11.77;;;4.00;99.90;;;;;;4769729;29;20066;-78
2021/04/18 02:52:16;;;;;;;17.45;11.88;;;4.00;99.90;;;;;;4769989;30;20062;-78
2021/04/18 02:54:43;;;;;;;16.50;12.38;;;4.00;99.90;;;;;;4770117;30;20043;-79
2021/04/18 02:57:19;;;;;;;15.38;11.23;;;4.00;99.90;;;;;;4756575;30;20142;-78
2021/04/18 02:59:50;;;;;;;15.27;11.27;;;4.00;99.90;;;;;;4769616;30;20058;-78
2021/04/18 03:02:22;;;;;;;17.48;10.80;;;4.00;99.90;;;;;;4755547;29;20067;-79
2021/04/18 03:04:57;;;;;;;14.38;11.18;;;4.00;99.90;;;;;;4755988;30;20051;-78
2021/04/18 03:07:28;;;;;;;17.92;12.05;;;4.00;99.90;;;;;;4755503;30;20078;-78
2021/04/18 03:09:55;;;;;;;16.02;11.63;;;3.90;99.90;;;;;;4754894;30;20052;-78
2021/04/18 03:12:27;;;;;;;16.70;11.88;;;3.90;99.90;;;;;;4755517;30;20405;-78
2021/04/18 03:14:58;;;;;;;14.45;11.27;;;3.90;99.90;;;;;;4755772;29;20481;-78
2021/04/18 03:17:29;;;;;;;15.30;11.55;;;3.80;99.90;;;;;;4755344;30;20055;-79
2021/04/18 03:20:07;;;;;;;16.83;11.68;;;3.80;99.90;;;;;;4756237;30;20588;-78
2021/04/18 03:22:42;;;;;;;15.45;11.65;;;3.80;99.90;;;;;;4769454;30;20051;-79
2021/04/18 03:25:14;;;;;;;15.25;12.13;;;3.80;99.90;;;;;;4769520;30;20055;-79
2021/04/18 03:27:47;;;;;;;17.90;12.02;;;3.80;99.90;;;;;;4755056;30;20078;-78
2021/04/18 03:30:32;;;;;;;15.93;11.75;;;3.80;99.90;;;;;;4769519;30;20498;-79
2021/04/18 03:33:06;;;;;;;19.45;13.63;;;3.80;99.90;;;;;;4755553;30;20051;-78
2021/04/18 03:35:32;;;;;;;26.77;17.40;;;3.80;99.90;;;;;;4754433;29;20047;-78
2021/04/18 03:37:59;;;;;;;31.15;19.42;;;3.80;99.90;;;;;;4754226;30;20147;-78
2021/04/18 03:40:31;;;;;;;23.00;14.98;;;3.70;99.90;;;;;;4755507;30;20061;-78
2021/04/18 03:42:58;;;;;;;17.38;12.20;;;3.80;99.90;;;;;;4754513;30;20104;-78
2021/04/18 03:45:30;;;;;;;16.38;12.43;;;3.80;99.90;;;;;;4755203;30;20055;-79
2021/04/18 03:48:01;;;;;;;17.48;12.68;;;3.70;99.90;;;;;;4754513;30;20051;-79
2021/04/18 03:50:32;;;;;;;16.63;12.50;;;3.80;99.90;;;;;;4754970;30;20064;-78
2021/04/18 03:53:23;;;;;;;16.23;12.40;;;3.80;99.90;;;;;;4757096;30;20058;-78
2021/04/18 03:56:02;;;;;;;17.20;12.45;;;3.80;99.90;;;;;;4756151;30;20525;-78
2021/04/18 03:58:37;;;;;;;16.88;12.43;;;3.80;99.90;;;;;;4768486;30;20419;-78
2021/04/18 04:01:08;;;;;;;15.65;12.30;;;3.80;99.90;;;;;;4769868;30;20043;-79
2021/04/18 04:03:39;;;;;;;16.77;12.80;;;3.80;99.90;;;;;;4754864;30;20123;-79
2021/04/18 04:06:12;;;;;;;17.65;13.48;;;3.80;99.90;;;;;;4754771;30;20047;-78
2021/04/18 04:08:47;;;;;;;16.42;11.75;;;3.80;99.90;;;;;;4754781;29;20055;-79
2021/04/18 04:11:22;;;;;;;17.52;11.70;;;3.80;99.90;;;;;;4755174;30;20039;-79
2021/04/18 04:13:49;;;;;;;16.70;11.85;;;3.70;99.90;;;;;;4753370;30;20444;-79
2021/04/18 04:16:19;;;;;;;16.13;12.18;;;3.70;99.90;;;;;;4754507;30;20142;-79
2021/04/18 04:18:51;;;;;;;16.35;12.45;;;3.60;99.90;;;;;;4754693;30;20065;-78
2021/04/18 04:21:41;;;;;;;16.17;11.80;;;3.60;99.90;;;;;;4772219;29;20471;-78
2021/04/18 04:24:23;;;;;;;17.90;13.40;;;3.60;99.90;;;;;;4755948;30;20055;-78
2021/04/18 04:26:54;;;;;;;17.17;12.73;;;3.50;99.90;;;;;;4769604;30;20050;-78
2021/04/18 04:29:20;;;;;;;17.38;12.52;;;3.50;99.90;;;;;;4753673;30;20051;-78
2021/04/18 04:31:46;;;;;;;21.63;14.32;;;3.50;99.90;;;;;;4753733;29;20104;-78
2021/04/18 04:34:18;;;;;;;22.48;15.38;;;3.50;99.90;;;;;;4769435;30;20047;-78
2021/04/18 04:36:44;;;;;;;21.80;16.08;;;3.60;99.90;;;;;;4753980;30;20111;-79
2021/04/18 04:39:11;;;;;;;15.77;12.77;;;3.60;99.90;;;;;;4768122;30;20138;-78
2021/04/18 04:41:42;;;;;;;21.58;16.48;;;3.60;99.90;;;;;;4768500;29;20055;-79
2021/04/18 04:44:15;;;;;;;34.53;26.27;;;3.60;99.90;;;;;;4768661;30;20061;-78
2021/04/18 04:46:44;;;;;;;25.08;17.67;;;3.60;99.90;;;;;;4753823;30;20047;-79
2021/04/18 04:49:10;;;;;;;22.05;15.00;;;3.70;99.90;;;;;;4755214;30;20055;-78
2021/04/18 04:51:41;;;;;;;18.02;13.65;;;3.70;99.90;;;;;;4757968;29;20047;-78
2021/04/18 04:54:13;;;;;;;19.33;14.98;;;3.70;99.90;;;;;;4758111;30;20047;-79
2021/04/18 04:56:44;;;;;;;21.10;15.55;;;3.70;99.90;;;;;;4758077;29;20074;-79
2021/04/18 04:59:15;;;;;;;31.98;22.30;;;3.70;99.90;;;;;;4757952;30;20057;-78
2021/04/18 05:01:46;;;;;;;27.33;21.80;;;3.80;99.90;;;;;;4771899;29;20051;-78
2021/04/18 05:04:18;;;;;;;22.25;14.63;;;3.80;99.90;;;;;;4757881;30;20051;-79
2021/04/18 05:06:49;;;;;;;19.23;14.77;;;3.80;99.90;;;;;;4771807;30;20051;-79
2021/04/18 05:09:16;;;;;;;19.60;14.23;;;3.80;99.90;;;;;;4756622;29;20159;-79
2021/04/18 05:11:42;;;;;;;20.77;13.25;;;3.80;99.90;;;;;;4756942;29;20084;-79
2021/04/18 05:14:14;;;;;;;18.30;13.30;;;3.80;99.90;;;;;;4757732;30;20130;-79
2021/04/18 05:16:40;;;;;;;23.58;16.17;;;3.80;99.90;;;;;;4771697;30;20090;-78
2021/04/18 05:19:11;;;;;;;20.52;14.55;;;3.90;99.90;;;;;;4757289;30;20134;-79
2021/04/18 05:21:43;;;;;;;22.88;14.88;;;3.90;99.90;;;;;;4757272;29;20146;-79
2021/04/18 05:24:14;;;;;;;18.27;14.18;;;3.90;99.90;;;;;;4757555;30;20060;-79
2021/04/18 05:26:45;;;;;;;50.97;38.50;;;3.80;99.90;;;;;;4772417;30;20043;-79
2021/04/18 05:29:18;;;;;;;25.67;17.23;;;3.80;99.90;;;;;;4757109;30;20057;-79
2021/04/18 05:31:49;;;;;;;34.63;26.80;;;3.80;99.90;;;;;;4757421;29;20051;-79
2021/04/18 05:34:21;;;;;;;21.08;15.77;;;3.80;99.90;;;;;;4757288;30;20134;-79
2021/04/18 05:36:52;;;;;;;22.77;15.20;;;3.80;99.90;;;;;;4771380;30;20054;-79
2021/04/18 05:39:24;;;;;;;22.23;15.65;;;3.80;99.90;;;;;;4756960;30;20051;-79
2021/04/18 05:41:55;;;;;;;24.48;17.52;;;3.80;99.90;;;;;;4757069;30;20147;-78
2021/04/18 05:44:21;;;;;;;29.35;21.20;;;3.80;99.90;;;;;;4771261;30;20059;-79
2021/04/18 05:46:52;;;;;;;22.10;15.60;;;3.80;99.90;;;;;;4773123;30;20047;-79
2021/04/18 05:49:19;;;;;;;19.38;15.93;;;3.80;99.90;;;;;;4755902;30;20496;-79
2021/04/18 05:51:50;;;;;;;23.17;16.23;;;3.80;99.90;;;;;;4771833;29;20126;-79
2021/04/18 05:54:21;;;;;;;21.50;15.30;;;3.80;99.90;;;;;;4757077;30;20060;-79
2021/04/18 05:56:52;;;;;;;21.40;14.93;;;3.90;99.90;;;;;;4787473;29;20057;-79
2021/04/18 05:59:24;;;;;;;21.70;16.00;;;3.90;99.90;;;;;;4756324;29;20055;-79
2021/04/18 06:01:55;;;;;;;22.23;16.00;;;3.90;99.90;;;;;;4756301;30;20055;-79
2021/04/18 06:04:21;;;;;;;23.65;16.92;;;3.90;99.90;;;;;;4756236;30;20055;-79
2021/04/18 06:06:52;;;;;;;24.58;16.38;;;3.90;99.90;;;;;;4771318;30;20051;-79
2021/04/18 06:09:23;;;;;;;21.95;15.88;;;3.90;99.90;;;;;;4770219;30;20046;-78
2021/04/18 06:11:50;;;;;;;23.88;17.52;;;3.90;99.90;;;;;;4770188;29;20822;-79
2021/04/18 06:14:21;;;;;;;21.65;16.55;;;4.00;99.90;;;;;;4756319;30;20043;-78
2021/04/18 06:16:52;;;;;;;24.55;16.70;;;4.00;99.90;;;;;;4756271;30;20057;-79
2021/04/18 06:19:23;;;;;;;24.77;17.33;;;4.00;99.90;;;;;;4755728;30;20056;-78
2021/04/18 06:21:58;;;;;;;27.13;18.40;;;4.10;99.90;;;;;;4753817;30;20599;-81
2021/04/18 06:24:25;;;;;;;21.67;15.18;;;4.00;99.90;;;;;;4737869;30;20062;-79
2021/04/18 06:26:56;;;;;;;23.48;16.85;;;4.00;99.90;;;;;;4740783;30;20046;-79
2021/04/18 06:29:22;;;;;;;24.80;17.48;;;4.00;99.90;;;;;;4740254;30;20142;-79
2021/04/18 06:31:48;;;;;;;21.85;15.88;;;4.00;99.90;;;;;;4755226;30;20209;-79
2021/04/18 06:34:22;;;;;;;24.63;15.80;;;4.10;99.90;;;;;;4741061;30;20407;-78
2021/04/18 06:36:50;;;;;;;24.08;16.17;;;4.10;99.90;;;;;;4755083;30;20150;-79
2021/04/18 06:39:21;;;;;;;25.50;17.48;;;4.10;99.90;;;;;;4754514;30;20538;-79
2021/04/18 06:41:55;;;;;;;24.27;17.23;;;4.10;99.90;;;;;;4739792;30;20051;-80
2021/04/18 06:44:29;;;;;;;24.98;17.63;;;4.10;99.90;;;;;;4739823;30;20070;-80
2021/04/18 06:47:00;;;;;;;;;;;4.10;99.90;;;;;;4740441;30;20051;-80
2021/04/18 06:49:32;;;;;;;24.60;17.17;;;4.10;99.90;;;;;;4739789;30;20294;-79
2021/04/18 06:51:58;;;;;;;23.55;16.50;;;4.10;99.90;;;;;;4739464;30;20143;-80
2021/04/18 06:54:29;;;;;;;29.05;18.77;;;4.10;99.90;;;;;;4753658;30;20682;-79
2021/04/18 06:56:56;;;;;;;26.92;18.33;;;4.10;99.90;;;;;;4754852;30;20150;-78
2021/04/18 06:59:24;;;;;;;29.33;18.15;;;4.10;99.90;;;;;;4739528;30;20066;-79
2021/04/18 07:01:50;;;;;;;24.92;17.05;;;4.10;99.90;;;;;;4741798;30;20479;-79
2021/04/18 07:04:22;;;;;;;27.23;17.50;;;4.10;99.90;;;;;;4741825;30;20080;-79
2021/04/18 07:06:51;;;;;;;25.00;17.00;;;4.10;99.90;;;;;;4755761;30;20047;-81
2021/04/18 07:09:24;;;;;;;31.27;20.40;;;4.10;99.90;;;;;;4755670;30;20626;-80
2021/04/18 07:11:59;;;;;;;25.27;17.70;;;4.10;99.90;;;;;;4756105;30;20044;-79
2021/04/18 07:14:29;;;;;;;27.25;18.38;;;4.10;99.90;;;;;;4772540;30;20105;-79
2021/04/18 07:17:10;;;;;;;26.77;18.88;;;4.10;99.90;;;;;;4756506;30;20094;-79
2021/04/18 07:19:39;;;;;;;24.83;17.38;;;4.10;99.90;;;;;;4740902;30;20056;-79
2021/04/18 07:22:06;;;;;;;29.38;18.83;;;4.20;99.90;;;;;;4756330;30;20499;-79
2021/04/18 07:24:55;;;;;;;27.23;18.05;;;4.20;99.90;;;;;;4756385;30;20101;-79
2021/04/18 07:27:22;;;;;;;26.73;18.10;;;4.30;99.90;;;;;;4756104;30;20102;-79
2021/04/18 07:29:57;;;;;;;29.15;18.65;;;4.30;99.90;;;;;;4756146;30;20048;-79
2021/04/18 07:32:26;;;;;;;28.55;18.17;;;4.30;99.90;;;;;;4756070;30;20154;-79
2021/04/18 07:34:53;;;;;;;31.67;19.08;;;4.40;99.90;;;;;;4757115;30;20047;-80
2021/04/18 07:37:29;;;;;;;31.27;19.95;;;4.50;99.90;;;;;;4757734;30;20067;-79
2021/04/18 07:40:03;;;;;;;32.95;19.33;;;4.60;99.90;;;;;;4758796;30;20121;-79
2021/04/18 07:42:35;;;;;;;30.25;20.33;;;4.60;99.90;;;;;;4756422;30;20484;-79
2021/04/18 07:45:17;;;;;;;32.92;19.60;;;4.70;99.90;;;;;;4755139;30;20051;-80
2021/04/18 07:47:46;;;;;;;27.90;18.05;;;4.70;99.90;;;;;;4753715;30;20568;-80
2021/04/18 07:50:21;;;;;;;27.80;18.35;;;4.70;99.90;;;;;;4741704;30;20143;-81
2021/04/18 07:52:51;;;;;;;;;;;4.70;99.90;;;;;;4754074;30;20058;-80
2021/04/18 07:55:23;;;;;;;27.45;18.63;;;4.70;99.90;;;;;;4739767;30;19936;-80
2021/04/18 07:57:50;;;;;;;24.83;17.35;;;4.70;99.90;;;;;;4753703;30;20091;-80
2021/04/18 08:00:18;;;;;;;28.60;18.50;;;4.70;99.90;;;;;;4753623;30;20154;-80
2021/04/18 08:02:52;;;;;;;29.83;19.88;;;4.80;99.90;;;;;;4753934;30;20048;-79
2021/04/18 08:05:26;;;;;;;29.83;19.02;;;4.90;99.90;;;;;;4753631;30;20447;-80
2021/04/18 08:08:04;;;;;;;27.90;18.77;;;5.00;99.90;;;;;;4753578;30;20051;-80
2021/04/18 08:10:44;;;;;;;27.85;18.00;;;5.00;99.90;;;;;;4740024;30;20048;-80
2021/04/18 08:13:23;;;;;;;30.30;18.88;;;5.10;99.90;;;;;;4739619;30;20055;-81
2021/04/18 08:15:56;;;;;;;31.27;19.10;;;5.20;99.90;;;;;;4739837;30;20054;-80
2021/04/18 08:18:38;;;;;;;29.02;19.80;;;5.20;99.90;;;;;;4753631;30;20064;-80
2021/04/18 08:21:24;;;;;;;27.30;17.60;;;5.20;99.90;;;;;;4739138;30;20075;-80
2021/04/18 08:23:51;;;;;;;27.85;19.02;;;5.20;99.90;;;;;;4753008;30;20059;-81
2021/04/18 08:26:25;;;;;;;27.63;18.55;;;5.30;99.90;;;;;;4753594;30;20063;-80
2021/04/18 08:29:03;;;;;;;31.25;18.88;;;5.30;99.90;;;;;;4739816;30;20052;-80
2021/04/18 08:31:59;;;;;;;29.67;19.48;;;5.20;99.90;;;;;;4753725;30;20146;-80
2021/04/18 08:34:31;;;;;;;28.05;18.63;;;5.20;99.90;;;;;;4739189;30;20508;-80
2021/04/18 08:37:05;;;;;;;27.00;17.40;;;5.20;99.90;;;;;;4753590;30;20516;-81
2021/04/18 08:39:38;;;;;;;28.30;18.85;;;5.20;99.90;;;;;;4753496;30;20052;-80
2021/04/18 08:42:24;;;;;;;26.50;18.00;;;5.30;99.90;;;;;;4753685;30;20058;-81
2021/04/18 08:44:51;;;;;;;25.77;17.23;;;5.30;99.90;;;;;;4753256;30;20089;-80
2021/04/18 08:47:26;;;;;;;25.38;17.35;;;5.40;99.90;;;;;;4739468;30;20142;-80
2021/04/18 08:50:07;;;;;;;20.98;14.85;;;5.40;99.90;;;;;;4753500;30;20134;-80
2021/04/18 08:55:53;;;;;;;25.23;17.20;;;5.70;99.90;;;;;;4841896;24;20055;-81
2021/04/18 08:58:38;;;;;;;25.77;17.05;;;5.80;99.90;;;;;;4755070;30;20044;-80
2021/04/18 09:01:12;;;;;;;25.73;16.95;;;5.90;99.90;;;;;;4750115;30;20062;-79
2021/04/18 09:04:00;;;;;;;28.45;21.45;;;6.00;99.90;;;;;;4735036;30;20044;-78
2021/04/18 09:06:35;;;;;;;27.88;18.48;;;6.10;99.90;;;;;;4730750;30;20048;-79
2021/04/18 09:09:07;;;;;;;24.17;16.42;;;6.20;99.90;;;;;;4734753;30;20109;-79
2021/04/18 09:11:41;;;;;;;25.20;16.63;;;6.20;99.90;;;;;;4749573;30;20159;-79
2021/04/18 09:14:08;;;;;;;18.75;13.98;;;6.30;99.90;;;;;;4734862;30;20142;-78
2021/04/18 09:16:37;;;;;;;20.13;15.30;;;6.20;99.90;;;;;;4765605;30;20058;-79
2021/04/18 09:19:17;;;;;;;19.10;14.63;;;6.20;99.90;;;;;;4735051;30;20066;-78
2021/04/18 09:22:06;;;;;;;23.45;14.75;;;6.30;99.90;;;;;;4749613;30;20055;-79
2021/04/18 09:24:39;;;;;;;21.08;14.95;;;6.20;99.90;;;;;;4734975;30;20158;-79
2021/04/18 09:27:16;;;;;;;21.73;14.70;;;6.30;99.90;;;;;;4735492;30;20047;-79
2021/04/18 09:29:52;;;;;;;19.85;13.93;;;6.40;99.90;;;;;;4730127;30;20059;-79
2021/04/18 09:32:20;;;;;;;20.52;14.52;;;6.40;99.90;;;;;;4748848;30;20084;-78
2021/04/18 09:34:47;;;;;;;19.33;14.52;;;6.40;99.90;;;;;;4738003;30;20050;-78
2021/04/18 09:37:29;;;;;;;21.02;15.02;;;6.40;99.90;;;;;;4755795;29;20419;-79
2021/04/18 09:39:59;;;;;;;21.65;14.73;;;6.40;99.90;;;;;;4766515;30;20520;-79
2021/04/18 09:42:33;;;;;;;22.33;14.82;;;6.30;99.90;;;;;;4753660;30;20058;-78
2021/04/18 09:45:07;;;;;;;20.08;14.93;;;6.10;99.90;;;;;;4737520;30;20052;-78
2021/04/18 09:47:40;;;;;;;22.63;16.20;;;6.00;99.90;;;;;;4761132;30;20113;-79
2021/04/18 09:50:35;;;;;;;23.20;16.48;;;5.90;99.90;;;;;;4749363;30;20050;-78
2021/04/18 09:53:14;;;;;;;23.48;17.08;;;5.90;99.90;;;;;;4738880;30;20054;-79
2021/04/18 09:55:58;;;;;;;22.20;14.85;;;5.90;99.90;;;;;;4752615;30;20137;-78
2021/04/18 09:58:37;;;;;;;21.75;14.48;;;5.90;99.90;;;;;;4753143;30;20052;-78
2021/04/18 10:01:20;;;;;;;23.58;15.10;;;5.90;99.90;;;;;;4752629;30;20048;-78
2021/04/18 10:03:52;;;;;;;20.45;15.40;;;5.90;99.90;;;;;;4738198;30;20424;-79
2021/04/18 10:06:19;;;;;;;18.75;13.40;;;5.90;99.90;;;;;;4752480;30;20044;-79
2021/04/18 10:08:54;;;;;;;22.02;15.80;;;6.00;99.90;;;;;;4737899;30;20105;-78
2021/04/18 10:11:22;;;;;;;19.73;13.93;;;6.00;99.90;;;;;;4737677;30;20159;-78
2021/04/18 10:13:55;;;;;;;19.77;13.85;;;6.00;99.90;;;;;;4737876;30;20050;-78
2021/04/18 10:16:35;;;;;;;19.67;14.27;;;5.90;99.90;;;;;;4752068;30;20498;-79
2021/04/18 10:19:18;;;;;;;18.10;12.77;;;6.00;99.90;;;;;;4751560;30;20044;-79
2021/04/18 10:22:05;;;;;;;17.00;13.15;;;6.00;99.90;;;;;;4737359;30;20062;-78
2021/04/18 10:24:44;;;;;;;19.25;12.35;;;6.00;99.90;;;;;;4751069;30;20048;-78
2021/04/18 10:27:19;;;;;;;16.42;11.73;;;6.10;99.90;;;;;;4737211;30;20501;-79
2021/04/18 10:29:46;;;;;;;17.20;12.55;;;6.10;99.90;;;;;;4756597;30;20143;-79
2021/04/18 10:32:20;;;;;;;18.48;13.00;;;6.10;99.90;;;;;;4745186;30;20453;-80
2021/04/18 10:34:53;;;;;;;16.52;11.90;;;6.10;99.90;;;;;;4743028;30;20054;-80
2021/04/18 10:37:24;;;;;;;17.77;11.93;;;6.20;99.90;;;;;;4742366;30;20420;-80
2021/04/18 10:39:51;;;;;;;15.35;11.40;;;6.20;99.90;;;;;;4755901;30;20508;-80
2021/04/18 10:42:23;;;;;;;17.40;12.27;;;6.20;99.90;;;;;;4756355;30;20051;-79
2021/04/18 10:44:55;;;;;;;18.30;12.17;;;6.20;99.90;;;;;;4742605;30;20048;-80
2021/04/18 10:47:28;;;;;;;19.08;12.52;;;6.40;99.90;;;;;;4755690;30;20044;-80
2021/04/18 10:49:55;;;;;;;16.92;12.07;;;6.40;99.90;;;;;;4767080;30;20047;-80
2021/04/18 10:52:22;;;;;;;16.38;12.38;;;6.50;99.90;;;;;;4779397;30;20079;-80
2021/04/18 10:54:48;;;;;;;16.35;12.63;;;6.50;99.90;;;;;;4762937;30;20048;-80
2021/04/18 10:57:20;;;;;;;16.25;11.70;;;6.50;99.90;;;;;;4777460;29;20534;-80
2021/04/18 10:59:51;;;;;;;17.92;12.50;;;6.50;99.90;;;;;;4764336;30;20055;-80
2021/04/18 11:05:24;;;;;;;17.20;12.45;;;6.50;99.90;;;;;;5788170;24;20029;-78
2021/04/18 11:07:50;;;;;;;17.83;11.68;;;6.50;99.90;;;;;;4745120;30;20081;-78
2021/04/18 11:10:22;;;;;;;17.02;12.60;;;6.40;99.90;;;;;;4744824;30;20423;-78
2021/04/18 11:12:49;;;;;;;18.98;12.07;;;6.50;99.90;;;;;;4759847;30;20066;-78
2021/04/18 11:15:21;;;;;;;19.10;13.20;;;6.50;99.90;;;;;;4744818;30;20079;-78
2021/04/18 11:17:52;;;;;;;17.13;11.95;;;6.50;99.90;;;;;;4744957;30;20059;-79
2021/04/18 11:20:20;;;;;;;15.80;11.15;;;6.40;99.90;;;;;;4744248;30;20059;-78
2021/04/18 11:25:35;;;;;;;18.00;12.15;;;6.40;99.90;;;;;;4756531;30;20135;-78
2021/04/18 11:28:07;;;;;;;16.20;12.18;;;6.40;99.90;;;;;;4755994;30;20047;-78
2021/04/18 11:30:33;;;;;;;17.67;12.30;;;6.40;99.90;;;;;;4755567;30;20079;-78
2021/04/18 11:40:21;;;;;;;17.88;13.23;;;6.50;99.90;;;;;;4770647;30;20052;-80
2021/04/18 11:54:43;;;;;;;18.30;11.73;;;6.50;99.90;;;;;;4784828;24;20466;-78
2021/04/18 11:57:14;;;;;;;16.23;11.50;;;6.50;99.90;;;;;;4741560;30;20055;-78
2021/04/18 11:59:46;;;;;;;15.48;10.82;;;6.50;99.90;;;;;;4740719;30;20432;-77
2021/04/18 12:14:15;;;;;;;15.98;11.60;;;6.70;99.90;;;;;;4765275;30;20125;-79
2021/04/18 12:16:41;;;;;;;17.15;12.20;;;6.70;99.90;;;;;;4746953;30;20135;-79
2021/04/18 12:19:12;;;;;;;18.88;12.70;;;6.70;99.90;;;;;;4748718;30;20052;-79
2021/04/18 12:21:38;;;;;;;17.45;11.88;;;6.70;99.90;;;;;;4750981;30;20066;-79
2021/04/18 12:24:05;;;;;;;18.70;13.73;;;6.80;99.90;;;;;;4752408;30;20459;-79
2021/04/18 12:26:37;;;;;;;25.77;17.35;;;6.80;99.90;;;;;;4752572;30;20049;-78
2021/04/18 12:29:03;;;;;;;17.75;13.35;;;6.80;99.90;;;;;;4752823;30;20151;-79
2021/04/18 12:31:29;;;;;;;19.13;13.15;;;6.80;99.90;;;;;;4738412;30;20603;-80
2021/04/18 12:34:01;;;;;;;19.92;12.00;;;6.90;99.90;;;;;;4753496;30;20044;-79
2021/04/18 12:36:27;;;;;;;22.25;14.10;;;7.00;99.90;;;;;;4752682;30;20052;-79
2021/04/18 12:38:53;;;;;;;16.85;11.82;;;7.00;99.90;;;;;;4752624;30;20146;-78
2021/04/18 12:41:24;;;;;;;15.88;12.07;;;7.00;99.90;;;;;;4751840;30;20083;-79
2021/04/18 12:43:56;;;;;;;17.70;11.85;;;7.10;99.90;;;;;;4723701;30;20056;-79
2021/04/18 12:46:22;;;;;;;17.42;12.13;;;7.10;99.90;;;;;;4738028;30;20478;-79
2021/04/18 12:48:53;;;;;;;16.95;11.95;;;7.10;99.90;;;;;;4752331;30;20055;-79
2021/04/18 12:51:20;;;;;;;18.45;11.73;;;7.10;99.90;;;;;;4752483;30;20056;-78
2021/04/18 12:53:46;;;;;;;17.30;12.18;;;7.10;99.90;;;;;;4755516;30;20047;-82
2021/04/18 12:56:17;;;;;;;15.77;11.77;;;7.10;99.90;;;;;;4742291;30;20039;-80
2021/04/18 12:58:49;;;;;;;18.98;11.40;;;7.10;99.90;;;;;;4739880;30;20048;-80
2021/04/18 13:01:23;;;;;;;16.38;11.98;;;7.10;99.90;;;;;;4754258;30;20480;-80
2021/04/18 13:03:59;;;;;;;14.93;11.40;;;7.20;99.90;;;;;;4770912;30;20068;-80
2021/04/18 13:06:54;;;;;;;17.58;12.13;;;7.20;99.90;;;;;;4756642;30;20108;-80
2021/04/18 13:09:29;;;;;;;16.10;12.02;;;7.20;99.90;;;;;;4771999;30;20426;-81
2021/04/18 13:12:05;;;;;;;;;;;7.20;99.90;;;;;;4757444;29;20227;-80
2021/04/18 13:14:41;;;;;;;17.98;12.07;;;7.20;99.90;;;;;;4753180;30;20033;-80
2021/04/18 13:17:13;;;;;;;15.48;11.27;;;7.20;99.90;;;;;;4760429;30;20051;-80
2021/04/18 13:19:54;;;;;;;19.92;13.32;;;7.20;99.90;;;;;;4763345;30;20056;-80
2021/04/18 13:25:14;;;;;;;20.55;14.25;;;7.20;99.90;;;;;;4839368;24;20278;-80
2021/04/18 13:27:40;;;;;;;18.83;13.50;;;7.00;99.90;;;;;;4759130;30;20416;-80
2021/04/18 13:30:14;;;;;;;25.05;15.82;;;7.10;99.90;;;;;;4769566;30;20067;-79
2021/04/18 13:32:41;;;;;;;18.98;13.15;;;7.10;99.90;;;;;;4761748;30;20052;-78
2021/04/18 13:35:13;;;;;;;16.83;12.15;;;7.10;99.90;;;;;;4761254;30;20428;-80
2021/04/18 13:37:48;;;;;;;16.95;11.85;;;7.20;99.90;;;;;;4751543;30;20048;-80
2021/04/18 13:40:25;;;;;;;16.98;12.05;;;7.20;99.90;;;;;;4739416;30;20059;-78
2021/04/18 13:57:53;;;;;;;17.92;11.23;;;7.40;99.90;;;;;;4793608;29;20415;-77
2021/04/18 14:00:23;;;;;;;14.75;10.38;;;7.40;99.90;;;;;;4764401;30;20075;-77